Time;durP1;ratioP1;P1;durP2;ratioP2;P2;SDS_P1;SDS_P2;PMS_P1;PMS_P2;Temp;Humidity;BMP_temperature;BMP_pressure;BME280_temperature;BME280_humidity;BME280_pressure;Samples;Min_cycle;Max_cycle;Signal;HPM_P1;HPM_P2
2024/01/17 00:00:10;;;;;;;111.63;50.20;;;;;;;;;;5021480;28;20050;-50
2024/01/17 00:02:39;;;;;;;106.90;48.90;;;;;;;;;;5018418;28;20025;-50
2024/01/17 00:05:06;;;;;;;108.18;47.72;;;;;;;;;;5024423;28;20061;-49
2024/01/17 00:07:32;;;;;;;111.88;51.08;;;;;;;;;;5024490;28;20033;-49
2024/01/17 00:09:58;;;;;;;103.10;48.80;;;;;;;;;;5032919;28;20030;-51
2024/01/17 00:12:25;;;;;;;115.25;49.35;;;;;;;;;;5030381;28;20299;-49
2024/01/17 00:14:52;;;;;;;109.18;52.05;;;;;;;;;;5032346;28;20527;-48
2024/01/17 00:17:18;;;;;;;101.80;49.58;;;;;;;;;;5014703;28;20061;-49
2024/01/17 00:19:45;;;;;;;104.90;49.70;;;;;;;;;;5013241;28;20026;-49
2024/01/17 00:22:14;;;;;;;101.10;51.13;;;;;;;;;;5014366;28;20033;-52
2024/01/17 00:24:40;;;;;;;108.90;50.88;;;;;;;;;;5018209;28;20116;-52
2024/01/17 00:27:06;;;;;;;102.13;47.58;;;;;;;;;;5017486;28;20080;-49
2024/01/17 00:29:32;;;;;;;111.80;52.03;;;;;;;;;;5025052;28;20025;-49
2024/01/17 00:31:59;;;;;;;108.67;51.93;;;;;;;;;;5025606;28;20480;-50
2024/01/17 00:34:25;;;;;;;105.20;51.22;;;;;;;;;;5030510;28;20330;-51
2024/01/17 00:36:51;;;;;;;109.40;51.57;;;;;;;;;;5030832;28;20032;-52
2024/01/17 00:39:18;;;;;;;100.68;49.42;;;;;;;;;;5023431;28;20029;-52
2024/01/17 00:41:45;;;;;;;;;;;;;;;;;;5024658;28;20540;-51
2024/01/17 00:44:16;;;;;;;107.60;50.25;;;;;;;;;;5012602;28;19963;-49
2024/01/17 00:46:43;;;;;;;109.30;51.08;;;;;;;;;;5027209;28;20596;-49
2024/01/17 00:49:09;;;;;;;109.13;50.30;;;;;;;;;;5032433;28;20061;-49
2024/01/17 00:51:35;;;;;;;109.13;50.90;;;;;;;;;;5032235;28;20423;-50
2024/01/17 00:54:02;;;;;;;111.90;55.23;;;;;;;;;;5030471;28;20441;-49
2024/01/17 00:56:29;;;;;;;107.85;53.33;;;;;;;;;;5027825;28;20029;-50
2024/01/17 00:58:55;;;;;;;105.70;52.28;;;;;;;;;;5025636;28;20037;-49
2024/01/17 01:01:23;;;;;;;118.97;53.87;;;;;;;;;;5022779;28;20061;-52
2024/01/17 01:03:49;;;;;;;108.50;51.35;;;;;;;;;;5019915;28;20030;-50
2024/01/17 01:06:15;;;;;;;108.40;50.88;;;;;;;;;;5012480;28;20034;-49
2024/01/17 01:08:42;;;;;;;108.70;52.08;;;;;;;;;;5013589;28;20026;-49
2024/01/17 01:11:08;;;;;;;102.27;51.67;;;;;;;;;;5012301;28;20058;-51
2024/01/17 01:13:34;;;;;;;112.65;51.40;;;;;;;;;;5020280;28;20048;-49
2024/01/17 01:16:00;;;;;;;102.40;51.00;;;;;;;;;;5020923;28;20399;-49
2024/01/17 01:18:26;;;;;;;112.38;53.00;;;;;;;;;;5012373;28;20115;-49
2024/01/17 01:20:52;;;;;;;105.18;51.20;;;;;;;;;;5018697;28;20217;-49
2024/01/17 01:23:19;;;;;;;115.93;57.40;;;;;;;;;;5019241;28;20025;-52
2024/01/17 01:25:45;;;;;;;116.05;54.42;;;;;;;;;;5030865;28;20037;-53
2024/01/17 01:28:11;;;;;;;113.47;51.78;;;;;;;;;;5024504;28;20018;-52
2024/01/17 01:30:37;;;;;;;107.25;54.78;;;;;;;;;;4999918;28;20033;-49
2024/01/17 01:33:03;;;;;;;108.07;51.65;;;;;;;;;;5023941;28;20404;-50
2024/01/17 01:35:30;;;;;;;122.90;54.70;;;;;;;;;;5026816;28;20033;-49
2024/01/17 01:37:56;;;;;;;111.05;52.50;;;;;;;;;;5028979;28;20766;-49
2024/01/17 01:40:22;;;;;;;112.87;56.37;;;;;;;;;;5011785;28;20113;-50
2024/01/17 01:42:48;;;;;;;104.55;53.30;;;;;;;;;;5012186;28;20054;-49
2024/01/17 01:45:15;;;;;;;97.20;45.50;;;;;;;;;;5011600;28;20116;-49
2024/01/17 01:47:41;;;;;;;127.45;57.30;;;;;;;;;;5028908;28;20121;-49
2024/01/17 01:50:07;;;;;;;121.23;54.37;;;;;;;;;;5031260;28;20037;-54
2024/01/17 01:52:35;;;;;;;108.38;52.30;;;;;;;;;;5030085;28;20036;-50
2024/01/17 01:55:01;;;;;;;;;;;;;;;;;;5007372;28;20038;-50
2024/01/17 01:57:28;;;;;;;106.78;53.05;;;;;;;;;;5016987;28;19972;-53
2024/01/17 01:59:55;;;;;;;116.53;53.15;;;;;;;;;;5010667;28;20377;-49
2024/01/17 02:02:24;;;;;;;104.97;53.63;;;;;;;;;;5028722;28;20064;-50
2024/01/17 02:04:52;;;;;;;126.05;56.42;;;;;;;;;;5030984;28;20018;-51
2024/01/17 02:07:19;;;;;;;110.95;52.97;;;;;;;;;;5029818;28;20506;-50
2024/01/17 02:09:45;;;;;;;124.55;57.47;;;;;;;;;;5021084;28;20030;-53
2024/01/17 02:12:12;;;;;;;111.73;54.33;;;;;;;;;;5017249;28;20064;-52
2024/01/17 02:14:40;;;;;;;112.97;55.88;;;;;;;;;;5029708;28;20033;-53
2024/01/17 02:17:07;;;;;;;113.35;51.70;;;;;;;;;;5016726;28;20041;-50
2024/01/17 02:19:34;;;;;;;116.45;53.35;;;;;;;;;;5031520;28;20377;-49
2024/01/17 02:22:00;;;;;;;110.38;52.17;;;;;;;;;;5031012;28;20046;-52
2024/01/17 02:24:28;;;;;;;114.90;53.53;;;;;;;;;;5012264;28;20037;-52
2024/01/17 02:26:57;;;;;;;114.40;54.35;;;;;;;;;;5012208;28;20053;-51
2024/01/17 02:29:24;;;;;;;113.72;55.55;;;;;;;;;;5030089;28;20055;-50
2024/01/17 02:31:50;;;;;;;123.17;55.40;;;;;;;;;;5015269;28;20040;-49
2024/01/17 02:34:16;;;;;;;117.15;56.42;;;;;;;;;;5010019;28;20117;-53
2024/01/17 02:36:42;;;;;;;118.07;58.83;;;;;;;;;;5011528;28;20025;-50
2024/01/17 02:39:09;;;;;;;112.50;53.88;;;;;;;;;;5018965;28;20084;-49
2024/01/17 02:41:35;;;;;;;118.32;55.65;;;;;;;;;;5016018;28;20365;-50
2024/01/17 02:44:01;;;;;;;114.85;55.28;;;;;;;;;;5013765;28;20034;-50
2024/01/17 02:46:28;;;;;;;116.88;52.13;;;;;;;;;;5020232;28;20488;-49
2024/01/17 02:48:54;;;;;;;115.10;53.78;;;;;;;;;;5015033;28;20112;-52
2024/01/17 02:51:21;;;;;;;120.13;56.55;;;;;;;;;;5014880;28;20033;-51
2024/01/17 02:53:47;;;;;;;116.37;54.63;;;;;;;;;;5028289;28;20072;-52
2024/01/17 02:56:14;;;;;;;116.38;54.80;;;;;;;;;;5017854;28;20026;-49
2024/01/17 02:58:40;;;;;;;117.50;55.05;;;;;;;;;;5015833;28;20017;-49
2024/01/17 03:01:07;;;;;;;118.65;55.08;;;;;;;;;;5013785;28;20369;-52
2024/01/17 03:03:33;;;;;;;117.82;55.58;;;;;;;;;;5033460;28;20026;-51
2024/01/17 03:05:59;;;;;;;118.43;54.83;;;;;;;;;;5030297;28;20510;-51
2024/01/17 03:08:25;;;;;;;119.20;56.03;;;;;;;;;;5014328;28;20492;-49
2024/01/17 03:10:51;;;;;;;118.90;56.30;;;;;;;;;;5014480;28;20381;-52
2024/01/17 03:13:18;;;;;;;118.75;57.33;;;;;;;;;;5032191;28;20471;-53
2024/01/17 03:15:44;;;;;;;123.72;57.92;;;;;;;;;;5010587;28;20493;-51
2024/01/17 03:18:13;;;;;;;118.90;56.97;;;;;;;;;;5015678;28;20054;-54
2024/01/17 03:20:42;;;;;;;110.28;54.10;;;;;;;;;;5025519;28;20104;-50
2024/01/17 03:23:08;;;;;;;118.63;59.20;;;;;;;;;;5032491;28;20514;-50
2024/01/17 03:25:35;;;;;;;116.93;58.50;;;;;;;;;;5017084;28;20488;-49
2024/01/17 03:28:01;;;;;;;119.35;53.00;;;;;;;;;;5018510;28;20281;-51
2024/01/17 03:30:27;;;;;;;114.55;55.92;;;;;;;;;;5017053;28;20033;-51
2024/01/17 03:32:53;;;;;;;116.78;54.63;;;;;;;;;;5033551;28;20117;-51
2024/01/17 03:35:19;;;;;;;128.35;55.88;;;;;;;;;;5017601;28;20026;-51
2024/01/17 03:37:45;;;;;;;107.40;53.90;;;;;;;;;;5014300;28;20026;-51
2024/01/17 03:40:12;;;;;;;120.95;54.20;;;;;;;;;;5030933;28;20029;-53
2024/01/17 03:42:38;;;;;;;118.40;57.22;;;;;;;;;;5033570;28;20087;-50
2024/01/17 03:45:05;;;;;;;121.78;58.45;;;;;;;;;;5030357;28;20492;-50
2024/01/17 03:47:31;;;;;;;120.30;56.27;;;;;;;;;;5016892;28;20021;-52
2024/01/17 03:49:58;;;;;;;118.93;54.13;;;;;;;;;;5019958;28;20079;-53
2024/01/17 03:52:24;;;;;;;114.00;55.50;;;;;;;;;;5022674;28;20022;-49
2024/01/17 03:54:50;;;;;;;113.68;55.95;;;;;;;;;;5002992;28;20799;-53
2024/01/17 03:57:16;;;;;;;118.95;58.83;;;;;;;;;;5032380;28;20034;-50
2024/01/17 03:59:43;;;;;;;131.43;60.75;;;;;;;;;;5021319;28;20033;-49
2024/01/17 04:02:10;;;;;;;124.57;57.38;;;;;;;;;;5020120;28;20032;-54
2024/01/17 04:04:37;;;;;;;118.03;58.55;;;;;;;;;;5031490;28;20120;-50
2024/01/17 04:07:03;;;;;;;129.70;59.38;;;;;;;;;;5033372;28;20029;-51
2024/01/17 04:09:29;;;;;;;120.30;57.97;;;;;;;;;;5033370;28;20724;-49
2024/01/17 04:11:56;;;;;;;129.93;61.83;;;;;;;;;;5027288;28;20025;-51
2024/01/17 04:14:22;;;;;;;120.82;58.72;;;;;;;;;;5017292;28;20041;-53
2024/01/17 04:16:48;;;;;;;125.18;58.33;;;;;;;;;;5013351;28;20127;-50
2024/01/17 04:19:14;;;;;;;134.82;63.58;;;;;;;;;;5023063;28;20022;-51
2024/01/17 04:21:40;;;;;;;120.38;58.15;;;;;;;;;;5031665;28;20407;-51
2024/01/17 04:24:06;;;;;;;133.77;58.93;;;;;;;;;;5030650;28;20033;-50
2024/01/17 04:26:33;;;;;;;130.80;61.92;;;;;;;;;;5032989;28;20029;-49
2024/01/17 04:28:59;;;;;;;138.60;61.45;;;;;;;;;;5031361;28;20112;-50
2024/01/17 04:31:26;;;;;;;130.37;58.13;;;;;;;;;;5020225;28;20498;-51
2024/01/17 04:33:53;;;;;;;120.93;58.40;;;;;;;;;;5012681;28;20284;-50
2024/01/17 04:36:19;;;;;;;128.52;59.88;;;;;;;;;;5026980;28;20063;-49
2024/01/17 04:38:45;;;;;;;134.30;60.85;;;;;;;;;;5032441;28;20116;-49
2024/01/17 04:41:12;;;;;;;126.20;60.83;;;;;;;;;;5032742;28;20036;-51
2024/01/17 04:43:42;;;;;;;126.25;59.58;;;;;;;;;;5018401;28;20269;-52
2024/01/17 04:46:09;;;;;;;132.38;60.40;;;;;;;;;;5013071;28;20132;-53
2024/01/17 04:48:35;;;;;;;119.32;57.75;;;;;;;;;;5011560;28;20034;-51
2024/01/17 04:51:03;;;;;;;126.07;57.60;;;;;;;;;;5011553;28;20139;-54
2024/01/17 04:53:29;;;;;;;127.25;57.08;;;;;;;;;;5012500;28;20034;-50
2024/01/17 04:55:56;;;;;;;126.30;60.42;;;;;;;;;;5011429;28;20030;-50
2024/01/17 04:58:22;;;;;;;126.78;60.65;;;;;;;;;;5012475;28;20111;-53
2024/01/17 05:00:48;;;;;;;127.15;58.20;;;;;;;;;;5010861;28;20484;-50
2024/01/17 05:03:15;;;;;;;122.85;57.58;;;;;;;;;;5012509;28;20064;-51
2024/01/17 05:05:43;;;;;;;;;;;;;;;;;;5012787;28;20052;-51
2024/01/17 05:08:10;;;;;;;123.40;59.30;;;;;;;;;;5012967;28;19909;-52
2024/01/17 05:10:36;;;;;;;129.20;60.45;;;;;;;;;;5012430;28;20034;-49
2024/01/17 05:13:02;;;;;;;132.23;62.70;;;;;;;;;;5012366;28;20033;-49
2024/01/17 05:15:29;;;;;;;109.00;49.42;;;;;;;;;;5012154;28;20365;-50
2024/01/17 05:17:55;;;;;;;138.45;62.30;;;;;;;;;;5012572;28;20022;-49
2024/01/17 05:20:21;;;;;;;131.20;62.55;;;;;;;;;;5012289;28;20021;-53
2024/01/17 05:22:47;;;;;;;140.90;62.17;;;;;;;;;;5011100;28;20488;-52
2024/01/17 05:25:13;;;;;;;135.27;63.33;;;;;;;;;;5012089;28;20083;-50
2024/01/17 05:27:40;;;;;;;144.73;67.60;;;;;;;;;;5012207;28;20552;-53
2024/01/17 05:30:09;;;;;;;135.90;62.20;;;;;;;;;;5012097;28;20037;-50
2024/01/17 05:32:39;;;;;;;142.30;67.20;;;;;;;;;;5010777;28;20026;-51
2024/01/17 05:35:06;;;;;;;155.10;75.22;;;;;;;;;;5010638;28;20033;-50
2024/01/17 05:37:32;;;;;;;149.02;67.57;;;;;;;;;;5012056;28;20507;-53
2024/01/17 05:39:58;;;;;;;144.57;68.25;;;;;;;;;;5011894;28;20489;-51
2024/01/17 05:42:24;;;;;;;147.10;66.65;;;;;;;;;;5011991;28;20388;-50
2024/01/17 05:44:51;;;;;;;146.50;66.18;;;;;;;;;;5010452;28;20049;-49
2024/01/17 05:47:17;;;;;;;145.77;67.30;;;;;;;;;;5011988;28;20033;-51
2024/01/17 05:49:43;;;;;;;143.23;65.78;;;;;;;;;;5011841;28;20054;-52
2024/01/17 05:52:10;;;;;;;140.60;65.82;;;;;;;;;;5011980;28;20037;-52
2024/01/17 05:54:36;;;;;;;141.25;65.80;;;;;;;;;;5010294;28;20099;-51
2024/01/17 05:57:02;;;;;;;136.65;65.07;;;;;;;;;;5010492;28;20120;-51
2024/01/17 05:59:28;;;;;;;141.55;64.43;;;;;;;;;;5010702;28;20061;-52
2024/01/17 06:01:55;;;;;;;138.70;65.05;;;;;;;;;;5010317;28;20038;-49
2024/01/17 06:04:21;;;;;;;141.98;68.35;;;;;;;;;;5011582;28;20037;-51
2024/01/17 06:06:47;;;;;;;135.02;64.80;;;;;;;;;;4994137;28;20038;-49
2024/01/17 06:09:14;;;;;;;145.93;70.63;;;;;;;;;;5010750;28;20477;-49
2024/01/17 06:11:40;;;;;;;135.98;65.53;;;;;;;;;;5011999;28;20484;-52
2024/01/17 06:14:06;;;;;;;153.15;74.40;;;;;;;;;;5015408;28;20045;-49
2024/01/17 06:16:33;;;;;;;135.95;69.28;;;;;;;;;;5015663;28;20033;-50
2024/01/17 06:18:59;;;;;;;144.73;72.45;;;;;;;;;;5015657;28;20504;-53
2024/01/17 06:21:26;;;;;;;146.00;66.53;;;;;;;;;;5014253;28;20095;-49
2024/01/17 06:23:53;;;;;;;126.38;64.63;;;;;;;;;;5015225;28;20492;-53
2024/01/17 06:26:19;;;;;;;130.05;67.57;;;;;;;;;;5015440;28;20110;-51
2024/01/17 06:28:45;;;;;;;127.72;63.65;;;;;;;;;;5015414;28;20030;-53
2024/01/17 06:31:12;;;;;;;123.10;61.42;;;;;;;;;;5015328;28;20025;-52
2024/01/17 06:33:39;;;;;;;126.23;64.07;;;;;;;;;;5015022;28;20029;-49
2024/01/17 06:36:05;;;;;;;125.22;63.33;;;;;;;;;;5015339;28;20030;-52
2024/01/17 06:38:31;;;;;;;130.65;65.63;;;;;;;;;;5015251;28;20029;-49
2024/01/17 06:40:57;;;;;;;126.80;65.22;;;;;;;;;;5013922;28;20644;-49
2024/01/17 06:43:24;;;;;;;136.32;75.18;;;;;;;;;;5015068;28;20073;-55
2024/01/17 06:45:50;;;;;;;131.50;64.63;;;;;;;;;;5015064;28;20030;-49
2024/01/17 06:48:16;;;;;;;136.35;68.22;;;;;;;;;;5015502;28;20080;-49
2024/01/17 06:50:42;;;;;;;128.80;65.30;;;;;;;;;;5013715;28;20038;-49
2024/01/17 06:53:09;;;;;;;125.10;64.60;;;;;;;;;;5013622;28;20120;-50
2024/01/17 06:55:35;;;;;;;122.43;63.53;;;;;;;;;;5014728;28;20030;-52
2024/01/17 06:58:01;;;;;;;127.53;63.10;;;;;;;;;;5013590;28;20038;-53
2024/01/17 07:00:28;;;;;;;119.33;60.87;;;;;;;;;;5013718;28;20448;-51
2024/01/17 07:02:54;;;;;;;116.82;61.72;;;;;;;;;;5014809;28;20026;-50
2024/01/17 07:05:21;;;;;;;123.93;63.45;;;;;;;;;;5013325;28;20116;-50
2024/01/17 07:07:48;;;;;;;118.18;59.67;;;;;;;;;;5014616;28;20133;-52
2024/01/17 07:10:14;;;;;;;125.93;63.37;;;;;;;;;;5013364;28;20574;-52
2024/01/17 07:12:40;;;;;;;123.82;64.13;;;;;;;;;;5014670;28;20113;-53
2024/01/17 07:15:07;;;;;;;133.33;65.57;;;;;;;;;;5014367;28;20113;-49
2024/01/17 07:17:33;;;;;;;145.27;67.97;;;;;;;;;;5014575;28;20125;-51
2024/01/17 07:19:59;;;;;;;144.13;65.57;;;;;;;;;;5014504;28;20033;-54
2024/01/17 07:22:25;;;;;;;141.23;70.78;;;;;;;;;;4996346;28;20030;-51
2024/01/17 07:24:52;;;;;;;147.57;69.15;;;;;;;;;;5013047;28;20427;-52
2024/01/17 07:27:18;;;;;;;146.80;68.32;;;;;;;;;;5014330;28;20048;-52
2024/01/17 07:29:44;;;;;;;151.38;70.15;;;;;;;;;;5014278;28;20128;-51
2024/01/17 07:32:10;;;;;;;153.48;71.82;;;;;;;;;;5014402;28;20076;-51
2024/01/17 07:34:37;;;;;;;140.30;68.20;;;;;;;;;;5012706;28;20448;-50
2024/01/17 07:37:03;;;;;;;163.50;75.65;;;;;;;;;;5012961;28;20089;-50
2024/01/17 07:39:29;;;;;;;147.20;69.40;;;;;;;;;;5014194;28;20034;-49
2024/01/17 07:41:58;;;;;;;147.77;72.20;;;;;;;;;;5012788;28;20033;-53
2024/01/17 07:44:27;;;;;;;143.02;67.68;;;;;;;;;;4996419;28;20381;-51
2024/01/17 07:46:53;;;;;;;132.25;65.05;;;;;;;;;;5013096;28;20408;-51
2024/01/17 07:49:20;;;;;;;140.03;69.20;;;;;;;;;;4996410;28;20675;-49
2024/01/17 07:51:46;;;;;;;129.50;66.88;;;;;;;;;;5013761;28;20030;-52
2024/01/17 07:54:13;;;;;;;134.00;67.35;;;;;;;;;;5012372;28;20053;-50
2024/01/17 07:56:39;;;;;;;137.00;68.28;;;;;;;;;;5013840;28;20033;-59
2024/01/17 07:59:07;;;;;;;139.20;69.73;;;;;;;;;;5013859;28;20079;-53
2024/01/17 08:01:33;;;;;;;135.23;66.63;;;;;;;;;;5012350;28;20021;-51
2024/01/17 08:03:59;;;;;;;139.77;64.28;;;;;;;;;;5013479;28;20025;-49
2024/01/17 08:06:25;;;;;;;146.50;68.47;;;;;;;;;;5013608;28;20034;-53
2024/01/17 08:08:52;;;;;;;136.65;67.72;;;;;;;;;;5013716;28;20400;-51
2024/01/17 08:11:19;;;;;;;123.82;62.92;;;;;;;;;;5013500;28;20501;-54
2024/01/17 08:13:45;;;;;;;126.27;66.93;;;;;;;;;;4995644;28;20030;-51
2024/01/17 08:16:11;;;;;;;130.70;66.75;;;;;;;;;;5013402;28;20033;-50
2024/01/17 08:18:39;;;;;;;132.38;67.93;;;;;;;;;;5013400;28;20051;-50
2024/01/17 08:21:06;;;;;;;150.40;68.45;;;;;;;;;;5011965;28;20108;-50
2024/01/17 08:23:34;;;;;;;131.43;63.92;;;;;;;;;;5013122;28;20026;-53
2024/01/17 08:26:00;;;;;;;124.68;65.97;;;;;;;;;;5013205;28;20053;-53
2024/01/17 08:28:27;;;;;;;129.27;66.00;;;;;;;;;;5012012;28;20030;-51
2024/01/17 08:30:54;;;;;;;133.77;67.37;;;;;;;;;;5013084;28;20265;-51
2024/01/17 08:33:20;;;;;;;127.30;67.07;;;;;;;;;;5012816;28;20034;-49
2024/01/17 08:35:47;;;;;;;130.65;64.93;;;;;;;;;;5012785;28;20030;-51
2024/01/17 08:38:13;;;;;;;121.78;63.63;;;;;;;;;;4995553;28;20029;-51
2024/01/17 08:40:39;;;;;;;134.38;67.18;;;;;;;;;;5011711;28;20397;-52
2024/01/17 08:43:06;;;;;;;142.75;69.75;;;;;;;;;;5012939;28;20022;-50
2024/01/17 08:45:32;;;;;;;119.57;63.05;;;;;;;;;;5012723;28;20481;-52
2024/01/17 08:47:58;;;;;;;116.15;61.53;;;;;;;;;;5012836;28;20133;-49
2024/01/17 08:50:25;;;;;;;124.78;64.70;;;;;;;;;;5012785;28;20105;-50
2024/01/17 08:52:51;;;;;;;133.65;63.58;;;;;;;;;;5012785;28;20441;-49
2024/01/17 08:55:17;;;;;;;119.18;62.05;;;;;;;;;;5012573;28;20036;-49
2024/01/17 08:57:44;;;;;;;129.93;67.40;;;;;;;;;;5011227;28;20172;-50
2024/01/17 09:00:11;;;;;;;122.65;65.90;;;;;;;;;;5012461;28;20152;-49
2024/01/17 09:02:37;;;;;;;113.55;61.15;;;;;;;;;;5012603;28;20087;-54
2024/01/17 09:05:03;;;;;;;108.88;60.60;;;;;;;;;;5011087;28;20040;-49
2024/01/17 09:07:32;;;;;;;109.40;60.30;;;;;;;;;;5012573;28;20040;-50
2024/01/17 09:09:59;;;;;;;112.65;61.33;;;;;;;;;;5012275;28;20041;-50
2024/01/17 09:12:25;;;;;;;115.88;62.28;;;;;;;;;;5011038;28;20535;-49
2024/01/17 09:14:51;;;;;;;101.63;57.83;;;;;;;;;;5012070;28;20041;-53
2024/01/17 09:17:18;;;;;;;96.32;56.85;;;;;;;;;;5011078;28;20502;-50
2024/01/17 09:19:46;;;;;;;98.18;57.58;;;;;;;;;;5012276;28;20048;-49
2024/01/17 09:22:12;;;;;;;103.97;57.75;;;;;;;;;;5012256;28;20022;-49
2024/01/17 09:24:41;;;;;;;90.90;54.43;;;;;;;;;;5010821;28;20096;-52
2024/01/17 09:27:07;;;;;;;92.53;56.63;;;;;;;;;;5012056;28;20766;-51
2024/01/17 09:29:33;;;;;;;94.10;54.33;;;;;;;;;;5010834;28;20428;-50
2024/01/17 09:32:00;;;;;;;94.60;54.60;;;;;;;;;;5010885;28;20030;-50
2024/01/17 09:34:28;;;;;;;91.50;55.40;;;;;;;;;;5011924;28;20033;-49
2024/01/17 09:36:54;;;;;;;89.82;52.80;;;;;;;;;;5010860;28;20026;-49
2024/01/17 09:39:20;;;;;;;94.27;57.37;;;;;;;;;;5012103;28;20024;-50
2024/01/17 09:41:47;;;;;;;97.00;57.33;;;;;;;;;;5011680;28;20480;-50
2024/01/17 09:44:13;;;;;;;98.70;58.00;;;;;;;;;;5010808;28;20374;-50
2024/01/17 09:46:41;;;;;;;91.68;55.85;;;;;;;;;;5010241;28;20045;-49
2024/01/17 09:49:07;;;;;;;95.50;55.75;;;;;;;;;;5011990;28;20148;-49
2024/01/17 09:51:34;;;;;;;96.75;57.13;;;;;;;;;;5012212;28;20037;-50
2024/01/17 09:54:04;;;;;;;112.65;56.15;;;;;;;;;;5011629;28;20631;-53
2024/01/17 09:56:32;;;;;;;104.15;59.20;;;;;;;;;;5011610;28;20057;-52
2024/01/17 09:59:07;;;;;;;118.40;62.83;;;;;;;;;;5011660;28;20048;-51
2024/01/17 10:01:34;;;;;;;100.60;57.85;;;;;;;;;;5010667;28;20026;-49
2024/01/17 10:04:00;;;;;;;112.07;60.88;;;;;;;;;;5002617;28;20030;-49
2024/01/17 10:06:28;;;;;;;99.93;57.20;;;;;;;;;;5011775;28;20452;-49
2024/01/17 10:08:54;;;;;;;;;;;;;;;;;;5012090;28;20066;-50
2024/01/17 10:11:21;;;;;;;103.28;56.45;;;;;;;;;;5010114;28;19909;-47
2024/01/17 10:13:47;;;;;;;86.28;52.83;;;;;;;;;;4993817;28;20030;-50
2024/01/17 10:16:13;;;;;;;92.20;55.67;;;;;;;;;;5011651;28;20018;-50
2024/01/17 10:18:39;;;;;;;95.90;54.20;;;;;;;;;;5011716;28;20030;-50
2024/01/17 10:21:06;;;;;;;92.85;56.05;;;;;;;;;;5011512;28;20018;-50
2024/01/17 10:23:32;;;;;;;92.40;56.00;;;;;;;;;;5011408;28;20535;-51
2024/01/17 10:25:58;;;;;;;97.45;60.03;;;;;;;;;;5011565;28;20040;-51
2024/01/17 10:28:24;;;;;;;98.28;56.58;;;;;;;;;;5011597;28;20480;-50
2024/01/17 10:30:50;;;;;;;87.38;54.15;;;;;;;;;;5011546;28;20030;-50
2024/01/17 10:33:17;;;;;;;86.93;52.03;;;;;;;;;;5010352;28;20121;-50
2024/01/17 10:35:43;;;;;;;85.03;50.35;;;;;;;;;;5011336;28;20026;-55
2024/01/17 10:38:09;;;;;;;88.88;53.10;;;;;;;;;;5011435;28;20026;-52
2024/01/17 10:40:35;;;;;;;86.70;52.53;;;;;;;;;;5011890;28;20041;-50
2024/01/17 10:43:13;;;;;;;94.95;55.67;;;;;;;;;;5010427;28;20428;-50
2024/01/17 10:45:40;;;;;;;80.07;50.40;;;;;;;;;;5010035;28;20034;-49
2024/01/17 10:48:07;;;;;;;85.15;50.40;;;;;;;;;;5010207;28;20104;-50
2024/01/17 10:50:34;;;;;;;78.97;50.33;;;;;;;;;;5011217;28;20473;-50
2024/01/17 10:53:08;;;;;;;77.70;49.08;;;;;;;;;;5011244;28;20105;-50
2024/01/17 10:55:38;;;;;;;78.07;49.13;;;;;;;;;;5009827;28;20122;-48
2024/01/17 10:58:09;;;;;;;76.65;47.85;;;;;;;;;;5027693;28;20088;-50
2024/01/17 11:00:39;;;;;;;71.10;46.58;;;;;;;;;;5018476;28;20026;-50
2024/01/17 11:03:08;;;;;;;78.35;50.08;;;;;;;;;;5015610;28;20075;-52
2024/01/17 11:05:39;;;;;;;80.75;48.08;;;;;;;;;;5012548;28;20477;-50
2024/01/17 11:08:05;;;;;;;76.03;47.30;;;;;;;;;;5014868;28;20029;-50
2024/01/17 11:10:32;;;;;;;85.10;51.40;;;;;;;;;;5012554;28;20042;-52
2024/01/17 11:12:59;;;;;;;78.07;47.25;;;;;;;;;;5013823;28;20033;-51
2024/01/17 11:15:26;;;;;;;72.25;46.47;;;;;;;;;;4995700;28;20026;-49
2024/01/17 11:17:54;;;;;;;68.68;43.17;;;;;;;;;;5012061;28;20045;-51
2024/01/17 11:20:21;;;;;;;74.68;45.75;;;;;;;;;;5013563;28;20018;-50
2024/01/17 11:22:49;;;;;;;75.47;45.78;;;;;;;;;;5013020;28;20021;-49
2024/01/17 11:25:30;;;;;;;73.22;45.47;;;;;;;;;;5013346;28;20022;-50
2024/01/17 11:28:00;;;;;;;70.53;45.30;;;;;;;;;;5014349;28;20038;-51
2024/01/17 11:30:37;;;;;;;61.50;39.90;;;;;;;;;;5017800;28;20061;-49
2024/01/17 11:33:03;;;;;;;70.53;44.87;;;;;;;;;;5017377;28;20042;-49
2024/01/17 11:35:42;;;;;;;68.40;42.65;;;;;;;;;;5017257;28;20283;-49
2024/01/17 11:38:32;;;;;;;72.13;44.05;;;;;;;;;;5023018;28;20065;-50
2024/01/17 11:41:05;;;;;;;71.05;44.75;;;;;;;;;;5016703;28;20029;-49
2024/01/17 11:43:33;;;;;;;69.72;45.03;;;;;;;;;;4999740;28;20038;-50
2024/01/17 11:46:00;;;;;;;62.78;40.38;;;;;;;;;;5023279;28;20026;-48
2024/01/17 11:48:30;;;;;;;61.90;41.57;;;;;;;;;;5011224;28;20113;-50
2024/01/17 11:51:03;;;;;;;65.75;43.65;;;;;;;;;;5015433;28;20282;-48
2024/01/17 11:53:30;;;;;;;66.68;42.45;;;;;;;;;;5030154;28;20117;-48
2024/01/17 11:55:57;;;;;;;66.03;44.38;;;;;;;;;;5028726;28;20434;-49
2024/01/17 11:58:39;;;;;;;67.68;42.92;;;;;;;;;;5012169;28;20022;-50
2024/01/17 12:01:06;;;;;;;60.90;41.40;;;;;;;;;;5016577;28;20452;-49
2024/01/17 12:03:32;;;;;;;;;;;;;;;;;;5013849;28;20040;-53
2024/01/17 12:05:58;;;;;;;64.15;39.53;;;;;;;;;;5032133;28;20312;-48
2024/01/17 12:08:26;;;;;;;65.20;40.88;;;;;;;;;;5026465;28;20083;-52
2024/01/17 12:10:53;;;;;;;70.68;43.20;;;;;;;;;;5010315;28;20125;-49
2024/01/17 12:13:20;;;;;;;67.90;43.60;;;;;;;;;;5020956;28;20022;-50
2024/01/17 12:15:48;;;;;;;66.65;43.28;;;;;;;;;;5010157;28;20022;-52
2024/01/17 12:18:19;;;;;;;69.80;44.38;;;;;;;;;;5012905;28;20088;-49
2024/01/17 12:20:45;;;;;;;67.07;43.90;;;;;;;;;;5011013;28;20117;-49
2024/01/17 12:23:11;;;;;;;62.65;42.33;;;;;;;;;;5026962;28;20021;-50
2024/01/17 12:25:38;;;;;;;71.05;43.35;;;;;;;;;;5029618;28;20480;-50
2024/01/17 12:28:05;;;;;;;67.63;41.72;;;;;;;;;;5028592;28;20037;-50
2024/01/17 12:30:31;;;;;;;63.42;41.28;;;;;;;;;;5028445;28;20508;-50
2024/01/17 12:32:57;;;;;;;64.20;40.53;;;;;;;;;;5013458;28;20079;-50
2024/01/17 12:35:24;;;;;;;65.10;41.38;;;;;;;;;;5030688;28;20025;-51
2024/01/17 12:37:50;;;;;;;63.75;41.95;;;;;;;;;;5021203;28;20038;-50
2024/01/17 12:40:17;;;;;;;63.28;39.83;;;;;;;;;;5011457;28;20041;-49
2024/01/17 12:42:47;;;;;;;64.90;40.92;;;;;;;;;;5031209;28;20076;-50
2024/01/17 12:45:14;;;;;;;69.32;43.88;;;;;;;;;;5028227;28;20042;-50
2024/01/17 12:47:40;;;;;;;72.18;41.35;;;;;;;;;;5018710;28;20029;-49
2024/01/17 12:50:08;;;;;;;64.73;41.80;;;;;;;;;;5031051;28;20030;-53
2024/01/17 12:52:35;;;;;;;67.97;43.95;;;;;;;;;;5010582;28;20030;-50
2024/01/17 12:55:02;;;;;;;72.78;48.88;;;;;;;;;;5017061;28;20068;-50
2024/01/17 12:57:29;;;;;;;73.75;44.05;;;;;;;;;;5030847;28;20361;-53
2024/01/17 12:59:55;;;;;;;69.88;45.38;;;;;;;;;;5029152;28;20029;-54
2024/01/17 13:02:21;;;;;;;70.60;43.35;;;;;;;;;;5012117;28;20029;-51
2024/01/17 13:05:06;;;;;;;66.50;39.17;;;;;;;;;;5011061;28;20040;-53
2024/01/17 13:07:33;;;;;;;61.88;35.63;;;;;;;;;;5011135;28;20048;-53
2024/01/17 13:09:59;;;;;;;58.50;36.25;;;;;;;;;;5024643;28;20037;-50
2024/01/17 13:12:25;;;;;;;70.88;39.92;;;;;;;;;;5030666;28;20033;-51
2024/01/17 13:14:52;;;;;;;70.47;41.47;;;;;;;;;;5028960;28;20570;-51
2024/01/17 13:17:18;;;;;;;67.40;40.17;;;;;;;;;;5025690;28;20123;-52
2024/01/17 13:19:44;;;;;;;66.97;38.42;;;;;;;;;;5018634;28;20030;-49
2024/01/17 13:22:12;;;;;;;63.17;39.13;;;;;;;;;;5010728;28;20041;-52
2024/01/17 13:24:40;;;;;;;58.90;35.70;;;;;;;;;;5011669;28;20359;-51
2024/01/17 13:27:07;;;;;;;67.13;41.25;;;;;;;;;;5025199;28;20025;-53
2024/01/17 13:29:33;;;;;;;64.03;38.17;;;;;;;;;;5028848;28;20038;-54
2024/01/17 13:32:00;;;;;;;65.80;38.50;;;;;;;;;;5015402;28;20033;-51
2024/01/17 13:34:26;;;;;;;63.05;36.42;;;;;;;;;;5011331;28;20084;-49
2024/01/17 13:36:52;;;;;;;60.97;35.80;;;;;;;;;;5010456;28;20104;-50
2024/01/17 13:39:18;;;;;;;63.55;37.85;;;;;;;;;;5014949;28;20022;-55
2024/01/17 13:41:44;;;;;;;61.65;36.58;;;;;;;;;;5028373;28;20433;-55
2024/01/17 13:44:11;;;;;;;61.88;37.63;;;;;;;;;;5028722;28;20030;-55
2024/01/17 13:46:38;;;;;;;68.95;36.95;;;;;;;;;;5027203;28;20041;-54
2024/01/17 13:49:07;;;;;;;72.15;37.22;;;;;;;;;;5030102;28;20033;-55
2024/01/17 13:51:34;;;;;;;66.93;36.15;;;;;;;;;;5024002;28;20026;-51
2024/01/17 13:54:14;;;;;;;59.17;33.92;;;;;;;;;;5011392;28;20033;-52
2024/01/17 13:56:40;;;;;;;54.13;34.58;;;;;;;;;;5027278;28;20120;-48
2024/01/17 13:59:06;;;;;;;57.85;35.08;;;;;;;;;;5029478;28;20118;-49
2024/01/17 14:01:33;;;;;;;52.55;33.28;;;;;;;;;;5003939;28;20491;-52
2024/01/17 14:03:59;;;;;;;52.22;33.80;;;;;;;;;;5029699;28;20080;-51
2024/01/17 14:06:25;;;;;;;55.35;35.40;;;;;;;;;;5028522;28;20049;-52
2024/01/17 14:08:51;;;;;;;56.13;36.45;;;;;;;;;;5028685;28;20037;-50